createdAt,value
2019-04-27T00:03:02.196Z,101417.33
2019-04-27T00:06:09.788Z,101423.41
2019-04-27T00:09:50.295Z,101431.91
2019-04-27T00:12:57.148Z,101433.41
2019-04-27T00:16:46.978Z,101426.45
2019-04-27T00:20:04.395Z,101425.60
2019-04-27T00:23:15.135Z,101414.24
2019-04-27T00:26:23.772Z,101412.55
2019-04-27T00:29:33.197Z,101391.57
2019-04-27T00:32:43.346Z,101386.77
2019-04-27T00:36:03.216Z,101360.08
2019-04-27T00:39:23.069Z,101364.58
2019-04-27T00:42:33.391Z,101358.84
2019-04-27T00:45:53.749Z,101359.63
2019-04-27T00:49:13.753Z,101353.41
2019-04-27T00:52:23.999Z,101359.62
2019-04-27T00:55:35.053Z,101357.79
2019-04-27T00:59:01.370Z,101347.55
2019-04-27T01:02:30.505Z,101340.80
2019-04-27T01:05:39.117Z,101339.30
2019-04-27T01:08:47.714Z,101325.75
2019-04-27T01:12:06.653Z,101303.95
2019-04-27T01:15:15.145Z,101301.09
2019-04-27T01:18:23.883Z,101309.98
2019-04-27T01:21:32.557Z,101314.05
2019-04-27T01:24:41.157Z,101324.05
2019-04-27T01:28:09.749Z,101314.64
2019-04-27T01:31:19.392Z,101323.66
2019-04-27T01:34:29.520Z,101322.05
2019-04-27T01:37:38.673Z,101332.66
2019-04-27T01:40:47.527Z,101321.90
2019-04-27T01:43:56.139Z,101306.30
2019-04-27T01:47:04.662Z,101301.73
2019-04-27T01:50:23.615Z,101304.03
2019-04-27T01:53:32.235Z,101312.56
2019-04-27T01:56:40.828Z,101311.77
2019-04-27T01:59:49.505Z,101318.67
2019-04-27T02:03:00.122Z,101317.33
2019-04-27T02:06:09.224Z,101314.33
2019-04-27T02:09:29.019Z,101313.30
2019-04-27T02:12:48.699Z,101324.47
2019-04-27T02:15:58.783Z,101327.55
2019-04-27T02:19:19.313Z,101319.70
2019-04-27T02:22:29.648Z,101316.81
2019-04-27T02:25:39.634Z,101312.13
2019-04-27T02:29:03.583Z,101309.39
2019-04-27T02:32:25.030Z,101308.17
2019-04-27T02:35:33.648Z,101302.87
2019-04-27T02:38:42.301Z,101313.33
2019-04-27T02:41:51.916Z,101313.33
2019-04-27T02:45:00.810Z,101317.39
2019-04-27T02:48:20.343Z,101313.54
2019-04-27T02:52:09.994Z,101317.49
2019-04-27T02:55:19.824Z,101305.02
2019-04-27T02:58:31.574Z,101305.48
2019-04-27T03:01:46.776Z,101302.89
2019-04-27T03:04:54.695Z,101299.66
2019-04-27T03:08:03.301Z,101300.17
2019-04-27T03:11:12.005Z,101297.55
2019-04-27T03:14:42.682Z,101289.94
2019-04-27T03:18:09.865Z,101294.84
2019-04-27T03:21:55.010Z,101296.19
2019-04-27T03:25:31.912Z,101304.55
2019-04-27T03:28:40.174Z,101299.34
2019-04-27T03:31:53.968Z,101300.89
2019-04-27T03:35:02.705Z,101295.80
2019-04-27T03:38:12.085Z,101287.97
2019-04-27T03:41:19.718Z,101280.73
2019-04-27T03:44:39.791Z,101279.91
2019-04-27T03:47:50.513Z,101279.12
2019-04-27T03:51:13.391Z,101272.23
2019-04-27T03:54:40.973Z,101273.05
2019-04-27T03:58:11.778Z,101265.78
2019-04-27T04:01:20.108Z,101265.86
2019-04-27T04:04:29.615Z,101264.83
2019-04-27T04:07:40.254Z,101270.72
2019-04-27T04:10:54.369Z,101270.34
2019-04-27T04:14:06.848Z,101272.33
2019-04-27T04:17:30.833Z,101279.70
2019-04-27T04:20:40.470Z,101279.83
2019-04-27T04:23:49.504Z,101271.12
2019-04-27T04:26:59.984Z,101269.91
2019-04-27T04:30:09.792Z,101277.78
2019-04-27T04:33:20.547Z,101275.98
2019-04-27T04:36:30.211Z,101271.38
2019-04-27T04:39:53.059Z,101272.55
2019-04-27T04:43:06.622Z,101269.33
2019-04-27T04:46:43.173Z,101279.28
2019-04-27T04:50:14.674Z,101270.09
2019-04-27T04:53:20.817Z,101273.39
2019-04-27T04:56:29.550Z,101276.39
2019-04-27T04:59:49.498Z,101262.81
2019-04-27T05:02:59.502Z,101269.84
2019-04-27T05:06:08.796Z,101268.12
2019-04-27T05:09:19.265Z,101271.04
2019-04-27T05:12:28.754Z,101276.75
2019-04-27T05:15:48.714Z,101272.15
2019-04-27T05:18:59.262Z,101264.14
2019-04-27T05:22:09.334Z,101268.30
2019-04-27T05:25:18.562Z,101275.83
2019-04-27T05:28:27.381Z,101271.94
2019-04-27T05:31:36.015Z,101272.34
2019-04-27T05:34:44.644Z,101274.33
2019-04-27T05:37:53.258Z,101261.22
2019-04-27T05:41:01.910Z,101264.95
2019-04-27T05:44:32.199Z,101259.77
2019-04-27T05:47:52.139Z,101261.05
2019-04-27T05:51:01.972Z,101256.64
2019-04-27T05:54:10.850Z,101247.45
2019-04-27T05:57:19.627Z,101245.63
2019-04-27T06:00:29.280Z,101247.70
2019-04-27T06:03:39.717Z,101242.41
2019-04-27T06:06:49.880Z,101237.23
2019-04-27T06:10:09.694Z,101245.67
2019-04-27T06:13:30.700Z,101236.53
2019-04-27T06:16:39.399Z,101245.72
2019-04-27T06:19:49.291Z,101243.81
2019-04-27T06:22:58.844Z,101239.57
2019-04-27T06:26:11.738Z,101236.33
2019-04-27T06:29:19.801Z,101235.90
2019-04-27T06:32:29.596Z,101234.48
2019-04-27T06:35:39.954Z,101241.36
2019-04-27T06:38:59.062Z,101232.69
2019-04-27T06:42:16.713Z,101234.73
2019-04-27T06:45:19.666Z,101232.41
2019-04-27T06:48:29.644Z,101232.61
2019-04-27T06:51:40.000Z,101222.51
2019-04-27T06:54:48.889Z,101224.75
2019-04-27T06:57:58.824Z,101225.08
2019-04-27T07:01:09.515Z,101230.28
2019-04-27T07:04:29.708Z,101225.23
2019-04-27T07:07:39.467Z,101223.17
2019-04-27T07:10:49.102Z,101220.13
2019-04-27T07:14:11.250Z,101215.59
2019-04-27T07:17:29.346Z,101211.06
2019-04-27T07:20:38.883Z,101215.48
2019-04-27T07:23:59.854Z,101216.59
2019-04-27T07:27:09.336Z,101217.32
2019-04-27T07:30:28.972Z,101209.53
2019-04-27T07:33:39.468Z,101210.70
2019-04-27T07:36:59.743Z,101208.50
2019-04-27T07:40:15.073Z,101210.27
2019-04-27T07:43:42.469Z,101204.83
2019-04-27T07:47:10.335Z,101200.76
2019-04-27T07:50:19.440Z,101209.40
2019-04-27T07:53:29.184Z,101197.27
2019-04-27T07:56:48.854Z,101193.11
2019-04-27T07:59:59.478Z,101199.52
2019-04-27T08:03:09.814Z,101196.77
2019-04-27T08:06:18.968Z,101192.83
2019-04-27T08:09:29.125Z,101197.27
2019-04-27T08:12:38.614Z,101191.70
2019-04-27T08:15:59.024Z,101182.84
2019-04-27T08:19:09.733Z,101196.11
2019-04-27T08:22:19.704Z,101188.39
2019-04-27T08:25:28.719Z,101191.79
2019-04-27T08:28:48.862Z,101184.39
2019-04-27T08:32:01.579Z,101182.28
2019-04-27T08:35:31.089Z,101179.17
2019-04-27T08:38:38.991Z,101186.48
2019-04-27T08:41:59.452Z,101183.69
2019-04-27T08:45:09.374Z,101182.63
2019-04-27T08:48:25.145Z,101180.34
2019-04-27T08:51:29.099Z,101178.92
2019-04-27T08:54:39.230Z,101172.59
2019-04-27T08:57:48.902Z,101175.98
2019-04-27T09:00:59.017Z,101172.74
2019-04-27T09:04:09.203Z,101165.80
2019-04-27T09:07:39.722Z,101163.58
2019-04-27T09:10:56.951Z,101161.45
2019-04-27T09:14:23.373Z,101156.54
2019-04-27T09:17:35.855Z,101168.33
2019-04-27T09:20:51.212Z,101164.11
2019-04-27T09:23:59.961Z,101152.94
2019-04-27T09:27:09.597Z,101160.65
2019-04-27T09:30:19.093Z,101153.70
2019-04-27T09:33:38.348Z,101142.15
2019-04-27T09:36:46.873Z,101143.22
2019-04-27T09:39:56.102Z,101140.12
2019-04-27T09:43:15.747Z,101127.63
2019-04-27T09:46:36.320Z,101126.42
2019-04-27T09:49:46.074Z,101126.02
2019-04-27T09:52:55.752Z,101126.86
2019-04-27T09:56:16.466Z,101120.17
2019-04-27T09:59:26.538Z,101115.52
2019-04-27T10:02:38.254Z,101129.27
2019-04-27T10:05:46.772Z,101106.22
2019-04-27T10:09:07.725Z,101097.73
2019-04-27T10:12:16.443Z,101104.63
2019-04-27T10:15:35.679Z,101095.73
2019-04-27T10:19:13.899Z,101087.34
2019-04-27T10:22:22.733Z,101095.38
2019-04-27T10:25:31.646Z,101098.84
2019-04-27T10:28:40.270Z,101087.85
2019-04-27T10:32:07.858Z,101087.38
2019-04-27T10:35:16.112Z,101085.23
2019-04-27T10:38:27.227Z,101094.06
2019-04-27T10:41:36.995Z,101082.34
2019-04-27T10:44:46.168Z,101077.93
2019-04-27T10:47:56.302Z,101074.73
2019-04-27T10:51:07.124Z,101061.70
2019-04-27T10:54:15.298Z,101066.17
2019-04-27T10:57:34.517Z,101054.94
2019-04-27T11:00:58.221Z,101063.87
2019-04-27T11:04:22.595Z,101063.66
2019-04-27T11:07:36.175Z,101060.73
2019-04-27T11:10:47.344Z,101063.75
2019-04-27T11:13:57.235Z,101069.16
2019-04-27T11:17:16.507Z,101070.02
2019-04-27T11:20:27.524Z,101063.77
2019-04-27T11:23:46.083Z,101058.50
2019-04-27T11:26:56.619Z,101059.94
2019-04-27T11:30:06.767Z,101059.55
2019-04-27T11:33:16.214Z,101067.73
2019-04-27T11:36:40.412Z,101057.14
2019-04-27T11:40:08.754Z,101047.56
2019-04-27T11:43:17.390Z,101047.66
2019-04-27T11:46:26.697Z,101047.82
2019-04-27T11:49:35.942Z,101029.42
2019-04-27T11:52:45.623Z,101036.48
2019-04-27T11:55:54.461Z,101027.02
2019-04-27T11:59:03.154Z,101029.78
2019-04-27T12:02:11.776Z,101032.50
2019-04-27T12:05:20.417Z,101023.55
2019-04-27T12:08:29.019Z,101033.30
2019-04-27T12:11:37.717Z,101029.70
2019-04-27T12:14:47.457Z,101020.78
2019-04-27T12:17:56.554Z,101019.09
2019-04-27T12:21:15.672Z,101006.91
2019-04-27T12:24:24.187Z,101021.98
2019-04-27T12:27:48.769Z,101022.80
2019-04-27T12:31:01.206Z,101023.30
2019-04-27T12:34:10.553Z,101010.37
2019-04-27T12:37:35.708Z,101008.58
2019-04-27T12:40:44.195Z,101003.23
2019-04-27T12:43:52.742Z,100994.23
2019-04-27T12:47:02.703Z,101010.48
2019-04-27T12:50:12.845Z,100994.64
2019-04-27T12:53:50.615Z,100996.92
2019-04-27T12:57:24.067Z,101000.74
2019-04-27T13:00:37.135Z,100986.76
2019-04-27T13:03:47.660Z,100986.30
2019-04-27T13:06:56.322Z,100995.22
2019-04-27T13:10:05.741Z,100987.27
2019-04-27T13:13:14.358Z,100982.93
2019-04-27T13:16:23.038Z,100984.34
2019-04-27T13:19:31.893Z,100981.38
2019-04-27T13:22:40.437Z,100971.56
2019-04-27T13:25:48.958Z,100968.61
2019-04-27T13:28:58.306Z,100960.03
2019-04-27T13:32:07.033Z,100982.52
2019-04-27T13:35:15.895Z,100991.70
2019-04-27T13:38:26.624Z,101010.48
2019-04-27T13:41:35.965Z,101020.25
2019-04-27T13:44:45.624Z,101042.91
2019-04-27T13:48:13.230Z,101064.80
2019-04-27T13:51:49.450Z,101074.92
2019-04-27T13:54:57.971Z,101076.72
2019-04-27T13:58:06.536Z,101081.16
2019-04-27T14:01:15.149Z,101078.41
2019-04-27T14:04:33.983Z,101071.37
2019-04-27T14:07:42.600Z,101077.28
2019-04-27T14:10:51.469Z,101087.58
2019-04-27T14:14:01.264Z,101078.02
2019-04-27T14:17:10.064Z,101069.52
2019-04-27T14:20:18.831Z,101068.44
2019-04-27T14:23:29.014Z,101062.16
2019-04-27T14:26:38.592Z,101073.02
2019-04-27T14:29:48.977Z,101072.33
2019-04-27T14:32:57.962Z,101071.94
2019-04-27T14:36:08.310Z,101066.43
2019-04-27T14:39:18.690Z,101073.91
2019-04-27T14:42:27.210Z,101073.16
2019-04-27T14:45:35.821Z,101074.84
2019-04-27T14:48:44.485Z,101077.70
2019-04-27T14:51:53.109Z,101076.20
2019-04-27T14:55:01.726Z,101078.36
2019-04-27T14:58:40.266Z,101078.31
2019-04-27T15:01:48.870Z,101073.58
2019-04-27T15:04:57.619Z,101079.27
2019-04-27T15:08:09.590Z,101078.81
2019-04-27T15:11:19.184Z,101080.63
2019-04-27T15:14:27.191Z,101087.38
2019-04-27T15:17:35.780Z,101081.27
2019-04-27T15:20:46.634Z,101094.90
2019-04-27T15:24:10.199Z,101091.88
2019-04-27T15:27:20.592Z,101094.16
2019-04-27T15:31:06.827Z,101098.27
2019-04-27T15:34:41.828Z,101109.27
2019-04-27T15:37:55.190Z,101106.45
2019-04-27T15:41:31.513Z,101107.07
2019-04-27T15:44:43.966Z,101113.39
2019-04-27T15:47:54.388Z,101112.09
2019-04-27T15:51:05.145Z,101111.81
2019-04-27T15:54:26.345Z,101115.59
2019-04-27T15:57:32.607Z,101108.92
2019-04-27T16:00:41.535Z,101110.12
2019-04-27T16:03:52.119Z,101119.38
2019-04-27T16:07:00.578Z,101131.69
2019-04-27T16:10:09.905Z,101136.28
2019-04-27T16:13:32.674Z,101134.84
2019-04-27T16:16:41.124Z,101142.12
2019-04-27T16:20:02.941Z,101144.53
2019-04-27T16:23:12.561Z,101149.31
2019-04-27T16:26:31.561Z,101152.52
2019-04-27T16:29:40.306Z,101155.71
2019-04-27T16:32:48.851Z,101153.83
2019-04-27T16:36:04.210Z,101154.39
2019-04-27T16:39:10.095Z,101152.91
2019-04-27T16:42:18.809Z,101159.19
2019-04-27T16:45:28.098Z,101150.80
2019-04-27T16:48:47.057Z,101145.42
2019-04-27T16:51:55.809Z,101150.55
2019-04-27T16:55:04.521Z,101149.05
2019-04-27T16:58:16.216Z,101157.47
2019-04-27T17:01:29.960Z,101156.98
2019-04-27T17:04:38.492Z,101166.41
2019-04-27T17:07:47.559Z,101164.84
2019-04-27T17:10:59.239Z,101165.78
2019-04-27T17:14:20.470Z,101174.16
2019-04-27T17:17:38.564Z,101172.19
2019-04-27T17:21:16.123Z,101173.45
2019-04-27T17:24:37.496Z,101173.82
2019-04-27T17:28:04.043Z,101169.00
2019-04-27T17:31:12.949Z,101164.53
2019-04-27T17:34:25.324Z,101178.44
2019-04-27T17:37:33.612Z,101176.00
2019-04-27T17:40:51.788Z,101183.71
2019-04-27T17:44:00.287Z,101179.50
2019-04-27T17:47:10.611Z,101187.34
2019-04-27T17:50:25.081Z,101188.42
2019-04-27T17:53:32.942Z,101193.07
2019-04-27T17:56:48.297Z,101191.56
2019-04-27T17:59:58.482Z,101195.78
2019-04-27T18:02:59.968Z,101203.48
2019-04-27T18:06:20.389Z,101210.84
2019-04-27T18:09:29.128Z,101207.62
2019-04-27T18:12:37.739Z,101209.81
2019-04-27T18:15:51.700Z,101210.33
2019-04-27T18:19:18.472Z,101211.43
2019-04-27T18:22:49.076Z,101217.00
2019-04-27T18:26:05.692Z,101225.40
2019-04-27T18:29:32.497Z,101224.34
2019-04-27T18:32:41.088Z,101232.11
2019-04-27T18:35:49.707Z,101234.36
2019-04-27T18:38:58.750Z,101236.43
2019-04-27T18:42:08.838Z,101244.82
2019-04-27T18:45:18.446Z,101248.38
2019-04-27T18:48:59.616Z,101248.83
2019-04-27T18:52:25.749Z,101256.46
2019-04-27T18:55:34.371Z,101256.98
2019-04-27T18:58:42.877Z,101276.66
2019-04-27T19:02:01.751Z,101271.19
2019-04-27T19:05:10.846Z,101281.37
2019-04-27T19:08:29.838Z,101284.47
2019-04-27T19:11:38.537Z,101294.87
2019-04-27T19:14:47.776Z,101301.03
2019-04-27T19:17:58.191Z,101311.55
2019-04-27T19:21:19.892Z,101313.74
2019-04-27T19:24:28.148Z,101317.02
2019-04-27T19:28:02.025Z,101317.72
2019-04-27T19:31:16.629Z,101318.89
2019-04-27T19:34:25.090Z,101323.42
2019-04-27T19:37:43.806Z,101331.62
2019-04-27T19:40:52.494Z,101328.92
2019-04-27T19:44:00.984Z,101329.44
2019-04-27T19:47:10.450Z,101332.41
2019-04-27T19:50:29.657Z,101333.88
2019-04-27T19:53:39.394Z,101335.04
2019-04-27T19:56:49.910Z,101334.09
2019-04-27T20:00:00.070Z,101335.73
2019-04-27T20:03:11.048Z,101338.95
2019-04-27T20:06:19.447Z,101343.71
2019-04-27T20:09:59.153Z,101342.89
2019-04-27T20:13:08.719Z,101342.89
2019-04-27T20:16:17.300Z,101342.45
2019-04-27T20:19:36.240Z,101341.41
2019-04-27T20:22:44.739Z,101347.00
2019-04-27T20:25:53.426Z,101354.31
2019-04-27T20:29:02.176Z,101358.56
2019-04-27T20:32:11.522Z,101354.77
2019-04-27T20:35:22.002Z,101358.08
2019-04-27T20:38:31.696Z,101358.56
2019-04-27T20:41:41.063Z,101361.95
2019-04-27T20:44:51.427Z,101369.66
2019-04-27T20:48:01.107Z,101370.02
2019-04-27T20:51:11.398Z,101373.30
2019-04-27T20:54:21.071Z,101365.86
2019-04-27T20:57:31.609Z,101369.64
2019-04-27T21:00:41.810Z,101374.33
2019-04-27T21:03:55.305Z,101380.02
2019-04-27T21:07:04.636Z,101384.90
2019-04-27T21:10:23.582Z,101384.69
2019-04-27T21:13:31.288Z,101394.34
2019-04-27T21:16:51.671Z,101391.39
2019-04-27T21:20:00.395Z,101388.42
2019-04-27T21:23:09.222Z,101390.40
2019-04-27T21:26:17.697Z,101392.69
2019-04-27T21:29:26.394Z,101390.64
2019-04-27T21:32:34.891Z,101395.72
2019-04-27T21:35:45.047Z,101390.13
2019-04-27T21:39:04.419Z,101401.05
2019-04-27T21:42:23.686Z,101404.83
2019-04-27T21:45:32.204Z,101408.13
2019-04-27T21:48:41.526Z,101415.28
2019-04-27T21:52:12.727Z,101411.61
2019-04-27T21:55:37.556Z,101392.91
2019-04-27T21:58:46.068Z,101402.61
2019-04-27T22:01:55.650Z,101402.89
2019-04-27T22:05:04.609Z,101406.41
2019-04-27T22:08:13.087Z,101406.48
2019-04-27T22:11:32.055Z,101409.45
2019-04-27T22:14:40.810Z,101416.91
2019-04-27T22:17:49.381Z,101409.06
2019-04-27T22:20:58.175Z,101417.19
2019-04-27T22:24:17.308Z,101422.45
2019-04-27T22:27:44.012Z,101416.03
2019-04-27T22:30:52.750Z,101423.69
2019-04-27T22:34:01.832Z,101422.08
2019-04-27T22:37:21.346Z,101417.26
2019-04-27T22:40:59.311Z,101421.49
2019-04-27T22:44:35.948Z,101421.39
2019-04-27T22:47:59.067Z,101423.23
2019-04-27T22:51:07.777Z,101426.80
2019-04-27T22:54:16.360Z,101427.98
2019-04-27T22:57:34.038Z,101428.48
2019-04-27T23:01:58.553Z,101432.89
2019-04-27T23:05:10.760Z,101440.67
2019-04-27T23:08:20.750Z,101438.13
2019-04-27T23:11:31.219Z,101441.19
2019-04-27T23:14:41.430Z,101440.98
2019-04-27T23:17:55.415Z,101437.06
2019-04-27T23:21:04.055Z,101433.05
2019-04-27T23:24:13.288Z,101426.19
2019-04-27T23:27:21.822Z,101436.80
2019-04-27T23:30:41.096Z,101435.76
2019-04-27T23:34:13.915Z,101436.46
2019-04-27T23:37:22.542Z,101448.02
2019-04-27T23:40:31.718Z,101445.84
2019-04-27T23:43:40.386Z,101438.05
2019-04-27T23:46:49.080Z,101446.09
2019-04-27T23:49:57.694Z,101442.03
2019-04-27T23:53:25.247Z,101444.38
2019-04-27T23:56:33.868Z,101447.44
2019-04-27T23:59:42.606Z,101445.62
